ESNU/UME METAR and TAF weather

Enter ICAO airport designator
Station Type Date Time Source
ESNU METAR 2020/03/29 18:20 UTC NOAA

ESNU 291820Z 30005KT 310V020 9999 FEW002 SCT011CB BKN051 M03/M04 Q1019 R14/19//60


Station Type Date Time Source
ESNU Decoded METAR 2020/03/29 18:20 UTC NOAA

Umea Flygplats, Sweden (ESNU) 63-48N 020-17E 14M
Mar 29, 2020 - 02:20 PM EDT / 2020.03.29 1820 UTC
Wind: from the WNW (300 degrees) at 6 MPH (5 KT) (direction variable):0
Visibility: greater than 7 mile(s):0
Sky conditions: mostly cloudy
Weather: Cumulonimbus clouds observed
Temperature: 26 F (-3 C)
Windchill: 19 F (-7 C):1
Dew Point: 24 F (-4 C)
Relative Humidity: 92%
Pressure (altimeter): 30.09 in. Hg (1019 hPa)
ob: ESNU 291820Z 30005KT 310V020 9999 FEW002 SCT011CB BKN051 M03/M04 Q1019 R14/19//60
cycle: 18

Station Type Date Time Source
ESNU TAF 2019/10/24 00:55 UTC NOAA

TAF
AMD ESNU 242348Z 2500/2524 16003KT 0200 FG VV002 PROB40 2500/2509 8000 -RA BKN005

Example: see airport list